메인 페이지
METAR-TAF:

METAR-TAF

공항 :

Mammoth Lakes, 캘리포니아, 미국

Mammoth Yosemite Airport

위도: 37-37N, 경도: 118-50W, 고도: 2173m

현재 날씨관측

예보는 18 시간 11분 전, 15:15시(UTC)에 발표되었습니다.
무풍
온도 -18°C
습도 71%
기압 1014 hPa
시정: 16.1km
맑음

METAR: KMMH 201515Z AUTO 00000KT 10SM CLR M18/M22 A2995 RMK AO2 T11851221

시각: 01:26 (09:26 UTC)

예보

예보는 21 시간 57분 전, 11:29시(UTC)에 발표되었습니다.
예보 대상 시간: 20일 12시부터 21일 12시까지 (UTC)
여러 방향의 바람 4kt
시정: 10km
고도 5000ft 상공 구름 조금
20일 1800시부터 (UTC)
남남동6kt
시정: 10km
고도 10000ft 상공 구름 보통
21일 0200시부터 (UTC)
여러 방향의 바람 3kt
시정: 10km
고도 10000ft 상공 구름 많음
고도 14000ft 상공 흐림

TAF: KMMH 201129Z 2012/2112 VRB04KT P6SM FEW050 FM201800 15006KT P6SM SCT100 FM210200 VRB03KT P6SM BKN100 OVC140

4,000개 이상의 공항 관측 자료 및 예보 (METAR 및 TAF 보고).

지도상에서 검색 가능한 기상관측소가 노란 점과 빨간 점으로 표시되어 있습니다.

기상관측소 명을 보려면 표시 위로 마우스를 이동하세요.

날씨 관측과 예보를 보려면 클릭하세요.

지도 변경 : 확대하려면 엑스 표시가 있는 녹색 버튼, 축소하려면 빼기 표시가 있는 녹색 버튼, 다음 페이지의 지도를 보려면 녹색 화살표를 클릭하세요.


METAR-TAF: